sensor_id;sensor_type;location;lat;lon;timestamp;P1;durP1;ratioP1;P2;durP2;ratioP2
38338;SDS011;37117;50.050;19.924;2023-03-23T00:00:54;28.80;;;14.80;;
38338;SDS011;37117;50.050;19.924;2023-03-23T00:03:23;30.40;;;15.10;;
38338;SDS011;37117;50.050;19.924;2023-03-23T00:05:57;28.10;;;15.10;;
38338;SDS011;37117;50.050;19.924;2023-03-23T00:08:32;22.60;;;14.60;;
38338;SDS011;37117;50.050;19.924;2023-03-23T00:11:06;31.10;;;15.30;;
38338;SDS011;37117;50.050;19.924;2023-03-23T00:13:35;25.90;;;15.00;;
38338;SDS011;37117;50.050;19.924;2023-03-23T00:16:05;28.40;;;16.10;;
38338;SDS011;37117;50.050;19.924;2023-03-23T00:18:45;26.40;;;16.10;;
38338;SDS011;37117;50.050;19.924;2023-03-23T00:21:15;25.10;;;14.80;;
38338;SDS011;37117;50.050;19.924;2023-03-23T00:23:44;28.50;;;15.90;;
38338;SDS011;37117;50.050;19.924;2023-03-23T00:26:14;30.50;;;16.30;;
38338;SDS011;37117;50.050;19.924;2023-03-23T00:28:44;21.40;;;15.00;;
38338;SDS011;37117;50.050;19.924;2023-03-23T00:31:14;22.30;;;14.20;;
38338;SDS011;37117;50.050;19.924;2023-03-23T00:33:45;29.30;;;16.60;;
38338;SDS011;37117;50.050;19.924;2023-03-23T00:36:14;29.90;;;15.20;;
38338;SDS011;37117;50.050;19.924;2023-03-23T00:38:46;24.90;;;16.40;;
38338;SDS011;37117;50.050;19.924;2023-03-23T00:41:16;35.60;;;17.10;;
38338;SDS011;37117;50.050;19.924;2023-03-23T00:43:45;28.30;;;17.60;;
38338;SDS011;37117;50.050;19.924;2023-03-23T00:46:16;34.70;;;18.50;;
38338;SDS011;37117;50.050;19.924;2023-03-23T00:48:48;32.30;;;18.70;;
38338;SDS011;37117;50.050;19.924;2023-03-23T00:51:19;30.40;;;17.80;;
38338;SDS011;37117;50.050;19.924;2023-03-23T00:53:49;35.50;;;20.20;;
38338;SDS011;37117;50.050;19.924;2023-03-23T00:56:19;34.90;;;19.70;;
38338;SDS011;37117;50.050;19.924;2023-03-23T00:58:49;35.00;;;19.00;;
38338;SDS011;37117;50.050;19.924;2023-03-23T01:01:18;34.30;;;21.40;;
38338;SDS011;37117;50.050;19.924;2023-03-23T01:03:48;33.60;;;21.80;;
38338;SDS011;37117;50.050;19.924;2023-03-23T01:06:19;34.60;;;21.80;;
38338;SDS011;37117;50.050;19.924;2023-03-23T01:08:49;30.20;;;20.10;;
38338;SDS011;37117;50.050;19.924;2023-03-23T01:11:22;35.80;;;20.20;;
38338;SDS011;37117;50.050;19.924;2023-03-23T01:13:53;31.50;;;19.30;;
38338;SDS011;37117;50.050;19.924;2023-03-23T01:16:22;38.20;;;21.40;;
38338;SDS011;37117;50.050;19.924;2023-03-23T01:18:52;30.60;;;20.70;;
38338;SDS011;37117;50.050;19.924;2023-03-23T01:21:22;34.90;;;23.10;;
38338;SDS011;37117;50.050;19.924;2023-03-23T01:23:55;31.70;;;21.30;;
38338;SDS011;37117;50.050;19.924;2023-03-23T01:26:25;34.90;;;22.80;;
38338;SDS011;37117;50.050;19.924;2023-03-23T01:28:56;34.70;;;19.90;;
38338;SDS011;37117;50.050;19.924;2023-03-23T01:31:25;32.40;;;20.70;;
38338;SDS011;37117;50.050;19.924;2023-03-23T01:33:55;28.10;;;19.10;;
38338;SDS011;37117;50.050;19.924;2023-03-23T01:36:25;26.90;;;19.20;;
38338;SDS011;37117;50.050;19.924;2023-03-23T01:39:01;31.30;;;20.20;;
38338;SDS011;37117;50.050;19.924;2023-03-23T01:41:32;33.60;;;21.50;;
38338;SDS011;37117;50.050;19.924;2023-03-23T01:44:07;35.20;;;22.80;;
38338;SDS011;37117;50.050;19.924;2023-03-23T01:47:01;37.30;;;22.50;;
38338;SDS011;37117;50.050;19.924;2023-03-23T01:49:32;34.40;;;21.30;;
38338;SDS011;37117;50.050;19.924;2023-03-23T01:52:04;34.80;;;20.90;;
38338;SDS011;37117;50.050;19.924;2023-03-23T01:54:37;36.20;;;22.00;;
38338;SDS011;37117;50.050;19.924;2023-03-23T01:57:09;34.70;;;22.50;;
38338;SDS011;37117;50.050;19.924;2023-03-23T01:59:40;37.00;;;23.90;;
38338;SDS011;37117;50.050;19.924;2023-03-23T02:02:27;34.40;;;23.40;;
38338;SDS011;37117;50.050;19.924;2023-03-23T02:04:59;36.10;;;25.00;;
38338;SDS011;37117;50.050;19.924;2023-03-23T02:07:32;35.50;;;22.90;;
38338;SDS011;37117;50.050;19.924;2023-03-23T02:10:02;32.70;;;21.80;;
38338;SDS011;37117;50.050;19.924;2023-03-23T02:12:34;37.90;;;24.40;;
38338;SDS011;37117;50.050;19.924;2023-03-23T02:15:05;32.70;;;22.90;;
38338;SDS011;37117;50.050;19.924;2023-03-23T02:17:37;35.30;;;22.40;;
38338;SDS011;37117;50.050;19.924;2023-03-23T02:20:12;38.10;;;26.40;;
38338;SDS011;37117;50.050;19.924;2023-03-23T02:22:52;37.80;;;25.80;;
38338;SDS011;37117;50.050;19.924;2023-03-23T02:31:01;31.50;;;21.40;;
38338;SDS011;37117;50.050;19.924;2023-03-23T02:33:39;40.10;;;24.10;;
38338;SDS011;37117;50.050;19.924;2023-03-23T02:36:14;33.60;;;23.50;;
38338;SDS011;37117;50.050;19.924;2023-03-23T02:38:49;33.20;;;21.20;;
38338;SDS011;37117;50.050;19.924;2023-03-23T02:41:22;32.50;;;22.30;;
38338;SDS011;37117;50.050;19.924;2023-03-23T02:43:54;30.80;;;18.50;;
38338;SDS011;37117;50.050;19.924;2023-03-23T02:46:24;23.60;;;15.10;;
38338;SDS011;37117;50.050;19.924;2023-03-23T02:48:54;28.60;;;18.40;;
38338;SDS011;37117;50.050;19.924;2023-03-23T02:51:25;25.40;;;16.20;;
38338;SDS011;37117;50.050;19.924;2023-03-23T02:53:56;25.60;;;16.60;;
38338;SDS011;37117;50.050;19.924;2023-03-23T02:56:26;26.80;;;17.10;;
38338;SDS011;37117;50.050;19.924;2023-03-23T02:58:58;27.50;;;18.40;;
38338;SDS011;37117;50.050;19.924;2023-03-23T03:04:12;30.60;;;21.30;;
38338;SDS011;37117;50.050;19.924;2023-03-23T03:06:44;33.40;;;21.40;;
38338;SDS011;37117;50.050;19.924;2023-03-23T03:09:18;33.20;;;23.20;;
38338;SDS011;37117;50.050;19.924;2023-03-23T03:11:52;29.10;;;21.30;;
38338;SDS011;37117;50.050;19.924;2023-03-23T03:14:26;31.60;;;22.00;;
38338;SDS011;37117;50.050;19.924;2023-03-23T03:16:59;36.10;;;23.70;;
38338;SDS011;37117;50.050;19.924;2023-03-23T03:19:31;38.10;;;25.50;;
38338;SDS011;37117;50.050;19.924;2023-03-23T03:22:01;37.50;;;24.90;;
38338;SDS011;37117;50.050;19.924;2023-03-23T03:24:40;33.10;;;23.60;;
38338;SDS011;37117;50.050;19.924;2023-03-23T03:27:13;35.80;;;23.40;;
38338;SDS011;37117;50.050;19.924;2023-03-23T03:29:49;41.90;;;23.00;;
38338;SDS011;37117;50.050;19.924;2023-03-23T03:32:22;33.90;;;22.80;;
38338;SDS011;37117;50.050;19.924;2023-03-23T03:34:53;31.00;;;22.20;;
38338;SDS011;37117;50.050;19.924;2023-03-23T03:37:23;33.40;;;22.70;;
38338;SDS011;37117;50.050;19.924;2023-03-23T03:39:53;29.50;;;20.20;;
38338;SDS011;37117;50.050;19.924;2023-03-23T03:42:24;34.90;;;23.30;;
38338;SDS011;37117;50.050;19.924;2023-03-23T03:44:54;31.20;;;22.60;;
38338;SDS011;37117;50.050;19.924;2023-03-23T03:47:24;30.60;;;22.20;;
38338;SDS011;37117;50.050;19.924;2023-03-23T03:49:54;28.40;;;18.40;;
38338;SDS011;37117;50.050;19.924;2023-03-23T03:52:25;31.20;;;20.30;;
38338;SDS011;37117;50.050;19.924;2023-03-23T03:54:56;32.20;;;20.20;;
38338;SDS011;37117;50.050;19.924;2023-03-23T03:57:25;29.80;;;20.10;;
38338;SDS011;37117;50.050;19.924;2023-03-23T04:00:32;38.30;;;22.00;;
38338;SDS011;37117;50.050;19.924;2023-03-23T04:03:02;32.60;;;22.00;;
38338;SDS011;37117;50.050;19.924;2023-03-23T04:05:43;33.60;;;22.60;;
38338;SDS011;37117;50.050;19.924;2023-03-23T04:08:14;33.40;;;21.70;;
38338;SDS011;37117;50.050;19.924;2023-03-23T04:10:45;36.60;;;24.10;;
38338;SDS011;37117;50.050;19.924;2023-03-23T04:13:17;41.30;;;25.50;;
38338;SDS011;37117;50.050;19.924;2023-03-23T04:18:29;42.70;;;25.60;;
38338;SDS011;37117;50.050;19.924;2023-03-23T04:21:00;41.40;;;25.40;;
38338;SDS011;37117;50.050;19.924;2023-03-23T04:23:31;36.10;;;25.70;;
38338;SDS011;37117;50.050;19.924;2023-03-23T04:26:03;37.00;;;25.10;;
38338;SDS011;37117;50.050;19.924;2023-03-23T04:28:38;39.80;;;25.00;;
38338;SDS011;37117;50.050;19.924;2023-03-23T04:31:27;39.00;;;26.10;;
38338;SDS011;37117;50.050;19.924;2023-03-23T04:34:18;42.90;;;28.10;;
38338;SDS011;37117;50.050;19.924;2023-03-23T04:36:49;38.00;;;26.90;;
38338;SDS011;37117;50.050;19.924;2023-03-23T04:39:24;38.60;;;27.10;;
38338;SDS011;37117;50.050;19.924;2023-03-23T04:41:57;39.60;;;27.70;;
38338;SDS011;37117;50.050;19.924;2023-03-23T04:44:47;37.90;;;26.30;;
38338;SDS011;37117;50.050;19.924;2023-03-23T04:47:23;43.50;;;26.30;;
38338;SDS011;37117;50.050;19.924;2023-03-23T04:49:56;43.50;;;26.60;;
38338;SDS011;37117;50.050;19.924;2023-03-23T04:52:38;43.40;;;27.00;;
38338;SDS011;37117;50.050;19.924;2023-03-23T04:55:09;36.90;;;27.30;;
38338;SDS011;37117;50.050;19.924;2023-03-23T04:57:40;44.50;;;27.40;;
38338;SDS011;37117;50.050;19.924;2023-03-23T05:00:35;38.40;;;26.10;;
38338;SDS011;37117;50.050;19.924;2023-03-23T05:03:05;42.00;;;27.20;;
38338;SDS011;37117;50.050;19.924;2023-03-23T05:05:36;35.10;;;24.30;;
38338;SDS011;37117;50.050;19.924;2023-03-23T05:08:08;35.00;;;24.60;;
38338;SDS011;37117;50.050;19.924;2023-03-23T05:10:40;42.30;;;25.90;;
38338;SDS011;37117;50.050;19.924;2023-03-23T05:13:12;36.60;;;26.60;;
38338;SDS011;37117;50.050;19.924;2023-03-23T05:15:48;40.70;;;25.90;;
38338;SDS011;37117;50.050;19.924;2023-03-23T05:18:17;41.70;;;25.10;;
38338;SDS011;37117;50.050;19.924;2023-03-23T05:20:49;39.40;;;25.30;;
38338;SDS011;37117;50.050;19.924;2023-03-23T05:23:23;34.50;;;24.60;;
38338;SDS011;37117;50.050;19.924;2023-03-23T05:25:58;37.50;;;24.10;;
38338;SDS011;37117;50.050;19.924;2023-03-23T05:28:31;37.30;;;25.90;;
38338;SDS011;37117;50.050;19.924;2023-03-23T05:31:09;38.40;;;25.70;;
38338;SDS011;37117;50.050;19.924;2023-03-23T05:33:39;34.90;;;25.30;;
38338;SDS011;37117;50.050;19.924;2023-03-23T05:36:15;41.90;;;27.10;;
38338;SDS011;37117;50.050;19.924;2023-03-23T05:39:05;38.20;;;26.20;;
38338;SDS011;37117;50.050;19.924;2023-03-23T05:41:51;41.10;;;24.80;;
38338;SDS011;37117;50.050;19.924;2023-03-23T05:44:21;40.10;;;22.80;;
38338;SDS011;37117;50.050;19.924;2023-03-23T05:46:54;37.80;;;24.60;;
38338;SDS011;37117;50.050;19.924;2023-03-23T05:49:24;37.30;;;24.90;;
38338;SDS011;37117;50.050;19.924;2023-03-23T05:51:55;38.70;;;26.20;;
38338;SDS011;37117;50.050;19.924;2023-03-23T05:54:28;34.90;;;26.00;;
38338;SDS011;37117;50.050;19.924;2023-03-23T05:56:58;40.70;;;28.60;;
38338;SDS011;37117;50.050;19.924;2023-03-23T05:59:46;34.90;;;23.70;;
38338;SDS011;37117;50.050;19.924;2023-03-23T06:02:21;37.80;;;25.40;;
38338;SDS011;37117;50.050;19.924;2023-03-23T06:04:52;34.60;;;22.70;;
38338;SDS011;37117;50.050;19.924;2023-03-23T06:07:31;33.80;;;24.10;;
38338;SDS011;37117;50.050;19.924;2023-03-23T06:10:05;37.30;;;22.50;;
38338;SDS011;37117;50.050;19.924;2023-03-23T06:12:43;33.50;;;23.60;;
38338;SDS011;37117;50.050;19.924;2023-03-23T06:15:35;35.00;;;23.60;;
38338;SDS011;37117;50.050;19.924;2023-03-23T06:18:14;32.80;;;22.40;;
38338;SDS011;37117;50.050;19.924;2023-03-23T06:21:02;32.50;;;21.80;;
38338;SDS011;37117;50.050;19.924;2023-03-23T06:23:53;32.90;;;21.30;;
38338;SDS011;37117;50.050;19.924;2023-03-23T06:26:25;32.30;;;23.00;;
38338;SDS011;37117;50.050;19.924;2023-03-23T06:29:00;35.60;;;25.00;;
38338;SDS011;37117;50.050;19.924;2023-03-23T06:31:32;30.50;;;22.10;;
38338;SDS011;37117;50.050;19.924;2023-03-23T06:34:03;27.70;;;22.00;;
38338;SDS011;37117;50.050;19.924;2023-03-23T06:37:00;31.30;;;20.40;;
38338;SDS011;37117;50.050;19.924;2023-03-23T06:39:36;32.80;;;20.20;;
38338;SDS011;37117;50.050;19.924;2023-03-23T06:42:18;29.50;;;19.60;;
38338;SDS011;37117;50.050;19.924;2023-03-23T06:44:52;31.00;;;19.80;;
38338;SDS011;37117;50.050;19.924;2023-03-23T06:47:24;29.50;;;18.00;;
38338;SDS011;37117;50.050;19.924;2023-03-23T06:49:54;27.60;;;19.20;;
38338;SDS011;37117;50.050;19.924;2023-03-23T06:52:27;22.60;;;15.80;;
38338;SDS011;37117;50.050;19.924;2023-03-23T06:54:58;21.10;;;15.50;;
38338;SDS011;37117;50.050;19.924;2023-03-23T06:57:28;22.10;;;15.80;;
38338;SDS011;37117;50.050;19.924;2023-03-23T06:59:57;27.30;;;16.60;;
38338;SDS011;37117;50.050;19.924;2023-03-23T07:02:27;21.90;;;14.60;;
38338;SDS011;37117;50.050;19.924;2023-03-23T07:04:58;17.50;;;12.50;;
38338;SDS011;37117;50.050;19.924;2023-03-23T07:07:28;14.20;;;10.00;;
38338;SDS011;37117;50.050;19.924;2023-03-23T07:10:23;15.60;;;8.90;;
38338;SDS011;37117;50.050;19.924;2023-03-23T07:12:53;14.50;;;8.30;;
38338;SDS011;37117;50.050;19.924;2023-03-23T07:15:23;11.20;;;8.00;;
38338;SDS011;37117;50.050;19.924;2023-03-23T07:17:54;10.50;;;6.60;;
38338;SDS011;37117;50.050;19.924;2023-03-23T07:20:32;9.70;;;6.40;;
38338;SDS011;37117;50.050;19.924;2023-03-23T07:23:02;13.60;;;7.40;;
38338;SDS011;37117;50.050;19.924;2023-03-23T07:25:45;10.00;;;6.10;;
38338;SDS011;37117;50.050;19.924;2023-03-23T07:28:21;11.00;;;6.80;;
38338;SDS011;37117;50.050;19.924;2023-03-23T07:30:51;9.70;;;6.30;;
38338;SDS011;37117;50.050;19.924;2023-03-23T07:33:22;10.30;;;5.80;;
38338;SDS011;37117;50.050;19.924;2023-03-23T07:35:53;9.00;;;5.80;;
38338;SDS011;37117;50.050;19.924;2023-03-23T07:38:23;18.50;;;5.80;;
38338;SDS011;37117;50.050;19.924;2023-03-23T07:40:55;10.70;;;5.60;;
38338;SDS011;37117;50.050;19.924;2023-03-23T07:43:26;9.80;;;5.30;;
38338;SDS011;37117;50.050;19.924;2023-03-23T07:45:56;16.50;;;5.60;;
38338;SDS011;37117;50.050;19.924;2023-03-23T07:48:30;7.40;;;3.70;;
38338;SDS011;37117;50.050;19.924;2023-03-23T07:50:59;10.10;;;4.00;;
38338;SDS011;37117;50.050;19.924;2023-03-23T07:53:31;6.20;;;3.40;;
38338;SDS011;37117;50.050;19.924;2023-03-23T07:56:32;6.90;;;3.70;;
38338;SDS011;37117;50.050;19.924;2023-03-23T07:59:14;6.00;;;3.50;;
38338;SDS011;37117;50.050;19.924;2023-03-23T08:01:45;7.40;;;3.90;;
38338;SDS011;37117;50.050;19.924;2023-03-23T08:04:33;7.40;;;3.50;;
38338;SDS011;37117;50.050;19.924;2023-03-23T08:07:19;6.10;;;3.40;;
38338;SDS011;37117;50.050;19.924;2023-03-23T08:10:18;6.70;;;3.00;;
38338;SDS011;37117;50.050;19.924;2023-03-23T08:13:18;6.20;;;3.20;;
38338;SDS011;37117;50.050;19.924;2023-03-23T08:16:07;7.90;;;3.10;;
38338;SDS011;37117;50.050;19.924;2023-03-23T08:19:00;6.30;;;3.40;;
38338;SDS011;37117;50.050;19.924;2023-03-23T08:21:39;5.60;;;2.90;;
38338;SDS011;37117;50.050;19.924;2023-03-23T08:24:21;10.50;;;3.50;;
38338;SDS011;37117;50.050;19.924;2023-03-23T08:27:02;7.90;;;3.20;;
38338;SDS011;37117;50.050;19.924;2023-03-23T08:29:55;7.30;;;3.40;;
38338;SDS011;37117;50.050;19.924;2023-03-23T08:32:43;5.40;;;3.00;;
38338;SDS011;37117;50.050;19.924;2023-03-23T08:35:31;8.90;;;4.50;;
38338;SDS011;37117;50.050;19.924;2023-03-23T08:38:23;8.10;;;3.60;;
38338;SDS011;37117;50.050;19.924;2023-03-23T08:40:56;7.40;;;3.40;;
38338;SDS011;37117;50.050;19.924;2023-03-23T08:43:46;5.90;;;3.40;;
38338;SDS011;37117;50.050;19.924;2023-03-23T08:46:34;7.80;;;2.80;;
38338;SDS011;37117;50.050;19.924;2023-03-23T08:49:14;7.20;;;3.20;;
38338;SDS011;37117;50.050;19.924;2023-03-23T08:52:10;5.40;;;3.00;;
38338;SDS011;37117;50.050;19.924;2023-03-23T08:54:59;7.90;;;3.50;;
38338;SDS011;37117;50.050;19.924;2023-03-23T08:57:28;6.50;;;3.50;;
38338;SDS011;37117;50.050;19.924;2023-03-23T09:00:14;6.70;;;2.80;;
38338;SDS011;37117;50.050;19.924;2023-03-23T09:03:18;6.20;;;3.00;;
38338;SDS011;37117;50.050;19.924;2023-03-23T09:05:59;5.10;;;2.70;;
38338;SDS011;37117;50.050;19.924;2023-03-23T09:08:38;8.90;;;3.20;;
38338;SDS011;37117;50.050;19.924;2023-03-23T09:11:09;8.20;;;3.80;;
38338;SDS011;37117;50.050;19.924;2023-03-23T09:13:39;7.90;;;3.00;;
38338;SDS011;37117;50.050;19.924;2023-03-23T09:16:09;5.40;;;2.60;;
38338;SDS011;37117;50.050;19.924;2023-03-23T09:18:39;6.60;;;3.10;;
38338;SDS011;37117;50.050;19.924;2023-03-23T09:21:08;7.50;;;3.50;;
38338;SDS011;37117;50.050;19.924;2023-03-23T09:23:38;5.60;;;3.10;;
38338;SDS011;37117;50.050;19.924;2023-03-23T09:26:12;5.50;;;2.90;;
38338;SDS011;37117;50.050;19.924;2023-03-23T09:28:42;6.60;;;3.30;;
38338;SDS011;37117;50.050;19.924;2023-03-23T09:31:12;6.60;;;3.30;;
38338;SDS011;37117;50.050;19.924;2023-03-23T09:33:42;7.70;;;3.20;;
38338;SDS011;37117;50.050;19.924;2023-03-23T09:36:14;8.00;;;3.00;;
38338;SDS011;37117;50.050;19.924;2023-03-23T09:38:45;8.10;;;3.40;;
38338;SDS011;37117;50.050;19.924;2023-03-23T09:41:17;6.40;;;3.20;;
38338;SDS011;37117;50.050;19.924;2023-03-23T09:43:57;6.10;;;3.20;;
38338;SDS011;37117;50.050;19.924;2023-03-23T09:46:32;9.50;;;3.10;;
38338;SDS011;37117;50.050;19.924;2023-03-23T09:49:05;11.20;;;3.30;;
38338;SDS011;37117;50.050;19.924;2023-03-23T09:51:41;6.00;;;3.00;;
38338;SDS011;37117;50.050;19.924;2023-03-23T09:54:13;6.40;;;3.40;;
38338;SDS011;37117;50.050;19.924;2023-03-23T09:56:44;5.20;;;2.70;;
38338;SDS011;37117;50.050;19.924;2023-03-23T09:59:15;6.80;;;3.30;;
38338;SDS011;37117;50.050;19.924;2023-03-23T10:01:47;7.90;;;3.20;;
38338;SDS011;37117;50.050;19.924;2023-03-23T10:04:22;6.40;;;3.10;;
38338;SDS011;37117;50.050;19.924;2023-03-23T10:06:53;7.30;;;3.60;;
38338;SDS011;37117;50.050;19.924;2023-03-23T10:09:26;8.50;;;3.90;;
38338;SDS011;37117;50.050;19.924;2023-03-23T10:12:02;5.30;;;2.50;;
38338;SDS011;37117;50.050;19.924;2023-03-23T10:14:39;6.00;;;3.10;;
38338;SDS011;37117;50.050;19.924;2023-03-23T10:17:14;6.70;;;3.30;;
38338;SDS011;37117;50.050;19.924;2023-03-23T10:19:48;5.00;;;2.90;;
38338;SDS011;37117;50.050;19.924;2023-03-23T10:22:21;5.70;;;2.90;;
38338;SDS011;37117;50.050;19.924;2023-03-23T10:24:55;6.00;;;2.60;;
38338;SDS011;37117;50.050;19.924;2023-03-23T10:27:29;8.80;;;3.10;;
38338;SDS011;37117;50.050;19.924;2023-03-23T10:30:03;7.20;;;2.90;;
38338;SDS011;37117;50.050;19.924;2023-03-23T10:32:40;5.30;;;3.00;;
38338;SDS011;37117;50.050;19.924;2023-03-23T10:35:13;6.90;;;3.20;;
38338;SDS011;37117;50.050;19.924;2023-03-23T10:37:46;6.40;;;3.50;;
38338;SDS011;37117;50.050;19.924;2023-03-23T10:40:17;6.40;;;3.50;;
38338;SDS011;37117;50.050;19.924;2023-03-23T10:42:49;7.10;;;3.20;;
38338;SDS011;37117;50.050;19.924;2023-03-23T10:45:19;5.90;;;3.20;;
38338;SDS011;37117;50.050;19.924;2023-03-23T10:47:53;6.40;;;3.40;;
38338;SDS011;37117;50.050;19.924;2023-03-23T10:52:52;6.40;;;2.90;;
38338;SDS011;37117;50.050;19.924;2023-03-23T10:55:23;8.10;;;4.50;;
38338;SDS011;37117;50.050;19.924;2023-03-23T10:58:02;7.20;;;3.20;;
38338;SDS011;37117;50.050;19.924;2023-03-23T11:00:32;7.20;;;3.90;;
38338;SDS011;37117;50.050;19.924;2023-03-23T11:03:03;6.80;;;3.00;;
38338;SDS011;37117;50.050;19.924;2023-03-23T11:05:35;6.00;;;3.10;;
38338;SDS011;37117;50.050;19.924;2023-03-23T11:08:11;7.00;;;2.70;;
38338;SDS011;37117;50.050;19.924;2023-03-23T11:10:42;7.60;;;3.60;;
38338;SDS011;37117;50.050;19.924;2023-03-23T11:13:17;5.80;;;3.00;;
38338;SDS011;37117;50.050;19.924;2023-03-23T11:15:48;6.30;;;2.90;;
38338;SDS011;37117;50.050;19.924;2023-03-23T11:18:19;6.60;;;2.60;;
38338;SDS011;37117;50.050;19.924;2023-03-23T11:20:50;5.40;;;2.80;;
38338;SDS011;37117;50.050;19.924;2023-03-23T11:23:23;5.80;;;2.70;;
38338;SDS011;37117;50.050;19.924;2023-03-23T11:25:57;10.60;;;3.30;;
38338;SDS011;37117;50.050;19.924;2023-03-23T11:28:29;5.10;;;2.90;;
38338;SDS011;37117;50.050;19.924;2023-03-23T11:31:00;5.70;;;2.50;;
38338;SDS011;37117;50.050;19.924;2023-03-23T11:33:35;6.00;;;2.60;;
38338;SDS011;37117;50.050;19.924;2023-03-23T11:36:05;6.10;;;2.70;;
38338;SDS011;37117;50.050;19.924;2023-03-23T11:38:35;10.40;;;3.40;;
38338;SDS011;37117;50.050;19.924;2023-03-23T11:41:09;5.70;;;2.80;;
38338;SDS011;37117;50.050;19.924;2023-03-23T11:43:43;7.30;;;2.60;;
38338;SDS011;37117;50.050;19.924;2023-03-23T11:46:15;6.90;;;3.10;;
38338;SDS011;37117;50.050;19.924;2023-03-23T11:48:49;6.10;;;2.50;;
38338;SDS011;37117;50.050;19.924;2023-03-23T11:51:22;6.40;;;2.70;;
38338;SDS011;37117;50.050;19.924;2023-03-23T11:53:55;5.50;;;2.50;;
38338;SDS011;37117;50.050;19.924;2023-03-23T11:56:27;5.40;;;2.60;;
38338;SDS011;37117;50.050;19.924;2023-03-23T11:58:59;4.40;;;2.40;;
38338;SDS011;37117;50.050;19.924;2023-03-23T12:01:35;8.80;;;2.80;;
38338;SDS011;37117;50.050;19.924;2023-03-23T12:04:15;10.40;;;3.10;;
38338;SDS011;37117;50.050;19.924;2023-03-23T12:06:50;4.60;;;2.70;;
38338;SDS011;37117;50.050;19.924;2023-03-23T12:09:24;7.70;;;2.80;;
38338;SDS011;37117;50.050;19.924;2023-03-23T12:12:01;8.20;;;2.60;;
38338;SDS011;37117;50.050;19.924;2023-03-23T12:14:36;5.20;;;2.40;;
38338;SDS011;37117;50.050;19.924;2023-03-23T12:17:13;8.50;;;2.50;;
38338;SDS011;37117;50.050;19.924;2023-03-23T12:19:48;6.90;;;2.70;;
38338;SDS011;37117;50.050;19.924;2023-03-23T12:22:24;7.40;;;3.10;;
38338;SDS011;37117;50.050;19.924;2023-03-23T12:24:59;5.10;;;2.70;;
38338;SDS011;37117;50.050;19.924;2023-03-23T12:27:32;6.10;;;2.40;;
38338;SDS011;37117;50.050;19.924;2023-03-23T12:30:18;6.50;;;2.80;;
38338;SDS011;37117;50.050;19.924;2023-03-23T12:32:56;6.90;;;2.50;;
38338;SDS011;37117;50.050;19.924;2023-03-23T12:35:31;7.10;;;2.70;;
38338;SDS011;37117;50.050;19.924;2023-03-23T12:38:16;5.70;;;2.90;;
38338;SDS011;37117;50.050;19.924;2023-03-23T12:40:52;6.70;;;2.90;;
38338;SDS011;37117;50.050;19.924;2023-03-23T12:43:26;5.20;;;2.80;;
38338;SDS011;37117;50.050;19.924;2023-03-23T12:48:26;6.40;;;2.90;;
38338;SDS011;37117;50.050;19.924;2023-03-23T12:51:10;7.40;;;3.10;;
38338;SDS011;37117;50.050;19.924;2023-03-23T12:53:46;7.20;;;3.10;;
38338;SDS011;37117;50.050;19.924;2023-03-23T12:56:19;5.80;;;3.10;;
38338;SDS011;37117;50.050;19.924;2023-03-23T12:58:53;6.10;;;2.80;;
38338;SDS011;37117;50.050;19.924;2023-03-23T13:01:26;5.60;;;2.90;;
38338;SDS011;37117;50.050;19.924;2023-03-23T13:04:01;5.30;;;2.60;;
38338;SDS011;37117;50.050;19.924;2023-03-23T13:06:34;6.30;;;3.00;;
38338;SDS011;37117;50.050;19.924;2023-03-23T13:09:07;7.20;;;2.30;;
38338;SDS011;37117;50.050;19.924;2023-03-23T13:11:40;6.40;;;2.60;;
38338;SDS011;37117;50.050;19.924;2023-03-23T13:14:15;8.40;;;2.30;;
38338;SDS011;37117;50.050;19.924;2023-03-23T13:16:50;7.40;;;2.40;;
38338;SDS011;37117;50.050;19.924;2023-03-23T13:19:23;5.60;;;2.50;;
38338;SDS011;37117;50.050;19.924;2023-03-23T13:24:27;5.00;;;2.70;;
38338;SDS011;37117;50.050;19.924;2023-03-23T13:29:26;6.90;;;2.50;;
38338;SDS011;37117;50.050;19.924;2023-03-23T13:32:05;4.90;;;2.40;;
38338;SDS011;37117;50.050;19.924;2023-03-23T13:34:35;5.00;;;2.20;;
38338;SDS011;37117;50.050;19.924;2023-03-23T13:37:09;7.20;;;2.70;;
38338;SDS011;37117;50.050;19.924;2023-03-23T13:39:50;8.20;;;2.10;;
38338;SDS011;37117;50.050;19.924;2023-03-23T13:42:22;4.30;;;2.30;;
38338;SDS011;37117;50.050;19.924;2023-03-23T13:45:06;5.10;;;2.00;;
38338;SDS011;37117;50.050;19.924;2023-03-23T13:47:38;4.50;;;2.20;;
38338;SDS011;37117;50.050;19.924;2023-03-23T13:50:12;6.60;;;2.40;;
38338;SDS011;37117;50.050;19.924;2023-03-23T13:52:49;5.80;;;2.00;;
38338;SDS011;37117;50.050;19.924;2023-03-23T13:55:39;6.70;;;2.20;;
38338;SDS011;37117;50.050;19.924;2023-03-23T13:58:21;5.50;;;2.00;;
38338;SDS011;37117;50.050;19.924;2023-03-23T14:01:02;6.20;;;2.30;;
38338;SDS011;37117;50.050;19.924;2023-03-23T14:03:40;6.30;;;2.30;;
38338;SDS011;37117;50.050;19.924;2023-03-23T14:06:12;8.00;;;2.40;;
38338;SDS011;37117;50.050;19.924;2023-03-23T14:09:06;6.70;;;2.60;;
38338;SDS011;37117;50.050;19.924;2023-03-23T14:11:45;5.10;;;2.60;;
38338;SDS011;37117;50.050;19.924;2023-03-23T14:14:17;6.60;;;2.20;;
38338;SDS011;37117;50.050;19.924;2023-03-23T14:16:50;7.70;;;2.60;;
38338;SDS011;37117;50.050;19.924;2023-03-23T14:19:21;8.40;;;3.00;;
38338;SDS011;37117;50.050;19.924;2023-03-23T14:21:52;6.00;;;2.40;;
38338;SDS011;37117;50.050;19.924;2023-03-23T14:24:23;6.50;;;2.60;;
38338;SDS011;37117;50.050;19.924;2023-03-23T14:27:01;6.50;;;2.00;;
38338;SDS011;37117;50.050;19.924;2023-03-23T14:29:31;5.50;;;2.20;;
38338;SDS011;37117;50.050;19.924;2023-03-23T14:32:00;7.90;;;2.50;;
38338;SDS011;37117;50.050;19.924;2023-03-23T14:34:31;5.10;;;2.20;;
38338;SDS011;37117;50.050;19.924;2023-03-23T14:37:01;6.60;;;2.90;;
38338;SDS011;37117;50.050;19.924;2023-03-23T14:39:32;5.60;;;2.10;;
38338;SDS011;37117;50.050;19.924;2023-03-23T14:42:03;7.10;;;2.90;;
38338;SDS011;37117;50.050;19.924;2023-03-23T14:44:35;6.40;;;2.30;;
38338;SDS011;37117;50.050;19.924;2023-03-23T14:47:08;5.80;;;2.70;;
38338;SDS011;37117;50.050;19.924;2023-03-23T14:49:40;7.00;;;2.50;;
38338;SDS011;37117;50.050;19.924;2023-03-23T14:52:11;4.70;;;2.00;;
38338;SDS011;37117;50.050;19.924;2023-03-23T14:54:41;5.70;;;2.30;;
38338;SDS011;37117;50.050;19.924;2023-03-23T14:57:12;6.00;;;2.50;;
38338;SDS011;37117;50.050;19.924;2023-03-23T14:59:43;4.80;;;2.40;;
38338;SDS011;37117;50.050;19.924;2023-03-23T15:02:16;6.20;;;2.70;;
38338;SDS011;37117;50.050;19.924;2023-03-23T15:04:50;5.70;;;2.60;;
38338;SDS011;37117;50.050;19.924;2023-03-23T15:07:20;6.20;;;2.30;;
38338;SDS011;37117;50.050;19.924;2023-03-23T15:09:54;5.60;;;2.20;;
38338;SDS011;37117;50.050;19.924;2023-03-23T15:12:24;4.70;;;2.00;;
38338;SDS011;37117;50.050;19.924;2023-03-23T15:14:56;6.30;;;2.40;;
38338;SDS011;37117;50.050;19.924;2023-03-23T15:17:27;5.40;;;2.00;;
38338;SDS011;37117;50.050;19.924;2023-03-23T15:19:58;6.80;;;2.50;;
38338;SDS011;37117;50.050;19.924;2023-03-23T15:22:35;5.80;;;2.60;;
38338;SDS011;37117;50.050;19.924;2023-03-23T15:25:08;6.20;;;2.30;;